Time,TemperatureF,DewpointF,PressureIn,WindDirection,WindDirectionDegrees,WindSpeedMPH,WindSpeedGustMPH,Humidity,HourlyPrecipIn,Conditions,Clouds,dailyrainin,SoftwareType,DateUTC
2013-10-19 00:01:00,52.8,49.6,29.97,WSW,248,0.0,0.0,89,0.00,,SCT,0.00,VWS V14.01,2013-10-19 04:01:00,
2013-10-19 00:06:00,52.8,49.6,29.97,WSW,248,0.0,0.0,89,0.00,,SCT,0.00,VWS V14.01,2013-10-19 04:06:00,
2013-10-19 00:11:00,52.8,49.6,29.97,WSW,248,0.0,0.0,89,0.00,,SCT,0.00,VWS V14.01,2013-10-19 04:11:00,
2013-10-19 00:16:00,52.8,49.6,29.97,WSW,248,0.0,0.0,89,0.00,,SCT,0.00,VWS V14.01,2013-10-19 04:16:00,
2013-10-19 00:21:00,52.8,49.6,29.97,WSW,248,0.0,0.0,89,0.00,,SCT,0.00,VWS V14.01,2013-10-19 04:21:00,
2013-10-19 00:26:00,52.8,49.6,29.97,WSW,248,0.0,0.0,89,0.00,,SCT,0.00,VWS V14.01,2013-10-19 04:26:00,
2013-10-19 00:28:00,52.8,49.9,29.97,WSW,248,0.0,0.0,90,0.00,,SCT,0.00,VWS V14.01,2013-10-19 04:28:00,
2013-10-19 00:29:00,52.8,49.9,29.97,WSW,248,0.0,0.0,90,0.00,,SCT,0.00,VWS V14.01,2013-10-19 04:29:00,
2013-10-19 00:30:00,52.8,49.9,29.97,WSW,248,0.0,0.0,90,0.00,,SCT,0.00,VWS V14.01,2013-10-19 04:30:00,
2013-10-19 00:31:00,52.8,49.9,29.97,WSW,248,0.0,0.0,90,0.00,,SCT,0.00,VWS V14.01,2013-10-19 04:31:00,
2013-10-19 00:36:00,52.8,49.9,29.97,WSW,248,0.0,0.0,90,0.00,,SCT,0.00,VWS V14.01,2013-10-19 04:36:00,
2013-10-19 00:41:00,52.8,49.9,29.97,WSW,248,0.0,0.0,90,0.00,,SCT,0.00,VWS V14.01,2013-10-19 04:41:00,
2013-10-19 00:46:00,52.8,49.9,29.97,WSW,248,0.0,0.0,90,0.00,,SCT,0.00,VWS V14.01,2013-10-19 04:46:00,
2013-10-19 00:51:00,52.8,49.9,29.97,WSW,248,0.0,0.0,90,0.00,,SCT,0.00,VWS V14.01,2013-10-19 04:51:00,
2013-10-19 00:56:00,52.8,49.9,29.97,WSW,248,0.0,0.0,90,0.00,,SCT,0.00,VWS V14.01,2013-10-19 04:56:00,
2013-10-19 01:01:00,52.8,50.2,29.97,WSW,248,0.0,0.0,91,0.00,,SCT,0.00,VWS V14.01,2013-10-19 05:01:00,
2013-10-19 01:06:00,52.8,50.2,29.97,WSW,248,0.0,0.0,91,0.00,,SCT,0.00,VWS V14.01,2013-10-19 05:06:00,
2013-10-19 01:11:00,52.8,50.2,29.97,WSW,248,0.0,0.0,91,0.00,,SCT,0.00,VWS V14.01,2013-10-19 05:11:00,
2013-10-19 01:16:00,52.8,50.2,29.97,WSW,248,0.0,0.0,91,0.00,,SCT,0.00,VWS V14.01,2013-10-19 05:16:00,
2013-10-19 01:21:00,52.8,50.2,29.97,WSW,248,0.0,0.0,91,0.00,,SCT,0.00,VWS V14.01,2013-10-19 05:21:00,
2013-10-19 01:26:00,52.8,50.2,29.97,WSW,248,0.0,0.0,91,0.00,,SCT,0.00,VWS V14.01,2013-10-19 05:26:00,
2013-10-19 01:31:00,52.8,50.2,29.97,WSW,248,0.0,0.0,91,0.00,,SCT,0.00,VWS V14.01,2013-10-19 05:31:00,
2013-10-19 01:36:00,52.8,50.2,29.97,WSW,248,0.0,0.0,91,0.00,,SCT,0.00,VWS V14.01,2013-10-19 05:36:00,
2013-10-19 01:41:00,52.8,50.2,29.97,WSW,248,0.0,0.0,91,0.00,,SCT,0.00,VWS V14.01,2013-10-19 05:41:00,
2013-10-19 01:46:00,52.8,50.2,29.97,WSW,248,0.0,0.0,91,0.00,,SCT,0.00,VWS V14.01,2013-10-19 05:46:00,
2013-10-19 01:51:00,52.8,50.5,29.97,WSW,248,0.0,0.0,92,0.00,,SCT,0.00,VWS V14.01,2013-10-19 05:51:00,
2013-10-19 01:56:00,52.8,50.5,29.97,WSW,248,0.0,0.0,92,0.00,,SCT,0.00,VWS V14.01,2013-10-19 05:56:00,
2013-10-19 02:00:00,52.8,50.5,29.97,WSW,248,0.0,0.0,92,0.00,,SCT,0.00,VWS V14.01,2013-10-19 06:00:00,
2013-10-19 02:05:00,52.8,50.5,29.97,WSW,248,0.0,0.0,92,0.00,,SCT,0.00,VWS V14.01,2013-10-19 06:05:00,
2013-10-19 02:10:00,52.8,50.5,29.97,WSW,248,0.0,0.0,92,0.00,,SCT,0.00,VWS V14.01,2013-10-19 06:10:00,
2013-10-19 02:15:00,52.8,50.8,29.97,WSW,248,0.0,0.0,93,0.00,,SCT,0.00,VWS V14.01,2013-10-19 06:15:00,
2013-10-19 02:20:00,52.8,50.8,29.97,WSW,248,0.0,0.0,93,0.00,,SCT,0.00,VWS V14.01,2013-10-19 06:20:00,
2013-10-19 02:25:00,52.8,50.8,29.97,WSW,248,0.0,0.0,93,0.00,,SCT,0.00,VWS V14.01,2013-10-19 06:25:00,
2013-10-19 02:30:00,52.8,50.8,29.97,WSW,248,0.0,0.0,93,0.00,,SCT,0.00,VWS V14.01,2013-10-19 06:30:00,
2013-10-19 02:35:00,52.8,50.8,29.97,WSW,248,0.0,0.0,93,0.00,,SCT,0.00,VWS V14.01,2013-10-19 06:35:00,
2013-10-19 02:40:00,52.8,50.8,29.97,WSW,248,0.0,0.0,93,0.00,,SCT,0.00,VWS V14.01,2013-10-19 06:40:00,
2013-10-19 02:45:00,52.8,50.8,29.97,WSW,248,0.0,0.0,93,0.00,,SCT,0.00,VWS V14.01,2013-10-19 06:45:00,
2013-10-19 02:50:00,52.8,50.8,29.97,WSW,248,0.0,0.0,93,0.00,,SCT,0.00,VWS V14.01,2013-10-19 06:50:00,
2013-10-19 02:55:00,52.8,50.8,29.97,WSW,248,0.0,0.0,93,0.00,,SCT,0.00,VWS V14.01,2013-10-19 06:55:00,
2013-10-19 03:00:00,52.8,50.8,29.97,WSW,248,0.0,0.0,93,0.00,,SCT,0.00,VWS V14.01,2013-10-19 07:00:00,
2013-10-19 03:05:00,52.8,50.8,29.97,WSW,248,0.0,0.0,93,0.00,,SCT,0.00,VWS V14.01,2013-10-19 07:05:00,
2013-10-19 03:10:00,52.8,50.8,29.97,WSW,248,0.0,0.0,93,0.00,,SCT,0.00,VWS V14.01,2013-10-19 07:10:00,
2013-10-19 03:15:00,51.5,49.6,29.94,WSW,248,0.0,0.0,93,0.00,,SCT,0.00,VWS V14.01,2013-10-19 07:15:00,
2013-10-19 03:20:00,51.5,49.6,29.94,WSW,248,0.0,0.0,93,0.00,,SCT,0.00,VWS V14.01,2013-10-19 07:20:00,
2013-10-19 03:25:00,51.3,49.4,29.94,WSW,248,0.0,0.0,93,0.00,,SCT,0.00,VWS V14.01,2013-10-19 07:25:00,
2013-10-19 03:30:00,51.3,49.4,29.94,WSW,248,0.0,0.0,93,0.00,,SCT,0.00,VWS V14.01,2013-10-19 07:30:00,
2013-10-19 03:35:00,51.0,49.0,29.94,WSW,248,0.0,0.0,93,0.00,,SCT,0.00,VWS V14.01,2013-10-19 07:35:00,
2013-10-19 03:40:00,51.0,49.0,29.94,WSW,248,0.0,0.0,93,0.00,,SCT,0.00,VWS V14.01,2013-10-19 07:40:00,
2013-10-19 03:45:00,51.0,49.3,29.94,WSW,248,0.0,0.0,94,0.00,,SCT,0.00,VWS V14.01,2013-10-19 07:45:00,
2013-10-19 03:50:00,51.0,49.3,29.94,WSW,248,0.0,0.0,94,0.00,,SCT,0.00,VWS V14.01,2013-10-19 07:50:00,
2013-10-19 03:55:00,51.2,49.5,29.94,WSW,248,0.0,0.0,94,0.00,,SCT,0.00,VWS V14.01,2013-10-19 07:55:00,
2013-10-19 04:00:00,51.3,50.0,29.94,WSW,248,0.0,0.0,95,0.00,,SCT,0.00,VWS V14.01,2013-10-19 08:00:00,
2013-10-19 04:05:00,51.3,50.0,29.94,WSW,248,0.0,0.0,95,0.00,,SCT,0.00,VWS V14.01,2013-10-19 08:05:00,
2013-10-19 04:10:00,51.5,50.1,29.94,WSW,248,0.0,0.0,95,0.00,,SCT,0.00,VWS V14.01,2013-10-19 08:10:00,
2013-10-19 04:15:00,51.5,50.1,29.94,WSW,248,0.0,0.0,95,0.00,,SCT,0.00,VWS V14.01,2013-10-19 08:15:00,
2013-10-19 04:20:00,51.5,50.1,29.94,WSW,248,0.0,0.0,95,0.00,,SCT,0.00,VWS V14.01,2013-10-19 08:20:00,
2013-10-19 04:25:00,51.7,50.3,29.94,WSW,248,0.0,0.0,95,0.00,,SCT,0.00,VWS V14.01,2013-10-19 08:25:00,
2013-10-19 04:30:00,51.7,50.3,29.94,WSW,248,0.0,0.0,95,0.00,,SCT,0.00,VWS V14.01,2013-10-19 08:30:00,
2013-10-19 04:35:00,51.7,50.3,29.94,WSW,248,0.0,0.0,95,0.00,,SCT,0.00,VWS V14.01,2013-10-19 08:35:00,
2013-10-19 04:40:00,51.9,50.5,29.94,WSW,248,0.0,0.0,95,0.00,,SCT,0.00,VWS V14.01,2013-10-19 08:40:00,
2013-10-19 04:45:00,52.1,51.0,29.94,WSW,248,0.0,0.0,96,0.00,,SCT,0.00,VWS V14.01,2013-10-19 08:45:00,
2013-10-19 04:50:00,52.2,51.1,29.94,WSW,248,0.0,0.0,96,0.00,,SCT,0.00,VWS V14.01,2013-10-19 08:50:00,
2013-10-19 04:55:00,52.2,51.1,29.94,WSW,248,0.0,0.0,96,0.00,,SCT,0.00,VWS V14.01,2013-10-19 08:55:00,
2013-10-19 05:00:00,52.4,51.3,29.94,WSW,248,0.0,0.0,96,0.00,,SCT,0.00,VWS V14.01,2013-10-19 09:00:00,
2013-10-19 05:05:00,52.2,51.1,29.94,WSW,248,0.0,0.0,96,0.00,,SCT,0.00,VWS V14.01,2013-10-19 09:05:00,
2013-10-19 05:10:00,52.2,51.1,29.94,WSW,248,0.0,0.0,96,0.00,,SCT,0.00,VWS V14.01,2013-10-19 09:10:00,
2013-10-19 05:15:00,52.4,51.3,29.94,WSW,248,0.0,0.0,96,0.00,,SCT,0.00,VWS V14.01,2013-10-19 09:15:00,
2013-10-19 05:20:00,52.2,51.1,29.94,WSW,248,0.0,0.0,96,0.00,,SCT,0.00,VWS V14.01,2013-10-19 09:20:00,
2013-10-19 05:25:00,52.1,51.0,29.94,WSW,248,0.0,0.0,96,0.00,,SCT,0.00,VWS V14.01,2013-10-19 09:25:00,
2013-10-19 05:30:00,52.2,51.1,29.94,WSW,248,0.0,0.0,96,0.00,,SCT,0.00,VWS V14.01,2013-10-19 09:30:00,
2013-10-19 05:32:00,52.1,51.0,29.94,WSW,248,0.0,0.0,96,0.00,,SCT,0.00,VWS V14.01,2013-10-19 09:32:00,
2013-10-19 05:33:00,52.1,51.0,29.94,WSW,248,0.0,0.0,96,0.00,,SCT,0.00,VWS V14.01,2013-10-19 09:33:00,
2013-10-19 05:35:00,52.1,51.0,29.94,WSW,248,0.0,0.0,96,0.00,,SCT,0.00,VWS V14.01,2013-10-19 09:35:00,
2013-10-19 05:40:00,52.2,51.4,29.94,WSW,248,0.0,0.0,97,0.00,,SCT,0.00,VWS V14.01,2013-10-19 09:40:00,
2013-10-19 05:45:00,52.4,51.6,29.94,WSW,248,0.0,0.0,97,0.00,,SCT,0.00,VWS V14.01,2013-10-19 09:45:00,
2013-10-19 05:50:00,52.4,51.6,29.94,WSW,248,0.0,0.0,97,0.00,,SCT,0.00,VWS V14.01,2013-10-19 09:50:00,
2013-10-19 05:55:00,52.6,51.8,29.94,WSW,248,0.0,0.0,97,0.00,,SCT,0.00,VWS V14.01,2013-10-19 09:55:00,
2013-10-19 06:00:00,52.6,51.8,29.94,WSW,248,0.0,0.0,97,0.00,,SCT,0.00,VWS V14.01,2013-10-19 10:00:00,
2013-10-19 06:05:00,52.6,51.8,29.94,WSW,248,0.0,0.0,97,0.00,,SCT,0.00,VWS V14.01,2013-10-19 10:05:00,
2013-10-19 06:10:00,53.0,52.1,29.94,WSW,248,0.0,0.0,97,0.00,,SCT,0.00,VWS V14.01,2013-10-19 10:10:00,
2013-10-19 06:15:00,53.0,52.4,29.94,WSW,248,0.0,0.0,98,0.00,,SCT,0.00,VWS V14.01,2013-10-19 10:15:00,
2013-10-19 06:20:00,52.8,52.0,29.94,WSW,248,0.0,0.0,97,0.00,,SCT,0.00,VWS V14.01,2013-10-19 10:20:00,
2013-10-19 06:25:00,52.8,52.0,29.94,WSW,248,0.0,0.0,97,0.00,,SCT,0.00,VWS V14.01,2013-10-19 10:25:00,
2013-10-19 06:30:00,53.0,52.4,29.94,WSW,248,0.0,0.0,98,0.00,,SCT,0.00,VWS V14.01,2013-10-19 10:30:00,
2013-10-19 06:35:00,53.1,52.6,29.94,WSW,248,0.0,0.0,98,0.00,,SCT,0.00,VWS V14.01,2013-10-19 10:35:00,
2013-10-19 06:40:00,52.8,52.0,29.94,WSW,248,0.0,0.0,97,0.00,,SCT,0.00,VWS V14.01,2013-10-19 10:40:00,
2013-10-19 06:45:00,52.6,51.8,29.94,WSW,248,0.0,0.0,97,0.00,,SCT,0.00,VWS V14.01,2013-10-19 10:45:00,
2013-10-19 06:50:00,52.4,51.6,29.94,WSW,248,0.0,0.0,97,0.00,,SCT,0.00,VWS V14.01,2013-10-19 10:50:00,
2013-10-19 06:55:00,52.8,52.2,29.94,WSW,248,0.0,0.0,98,0.00,,SCT,0.00,VWS V14.01,2013-10-19 10:55:00,
2013-10-19 07:00:00,52.8,52.2,29.94,WSW,248,0.0,0.0,98,0.00,,SCT,0.00,VWS V14.01,2013-10-19 11:00:00,
2013-10-19 07:05:00,52.8,52.2,29.94,WSW,248,0.0,0.0,98,0.00,,SCT,0.00,VWS V14.01,2013-10-19 11:05:00,
2013-10-19 07:10:00,52.8,52.2,29.94,WSW,248,0.0,0.0,98,0.00,,SCT,0.00,VWS V14.01,2013-10-19 11:10:00,
2013-10-19 07:15:00,53.1,52.6,29.94,WSW,248,0.0,0.0,98,0.00,,SCT,0.00,VWS V14.01,2013-10-19 11:15:00,
2013-10-19 07:20:00,52.8,52.2,29.94,WSW,248,0.0,0.0,98,0.00,,SCT,0.00,VWS V14.01,2013-10-19 11:20:00,
2013-10-19 07:25:00,52.8,52.2,29.94,WSW,248,0.0,0.0,98,0.00,,SCT,0.00,VWS V14.01,2013-10-19 11:25:00,
2013-10-19 07:30:00,52.8,52.2,29.94,WSW,248,0.0,0.0,98,0.00,,SCT,0.00,VWS V14.01,2013-10-19 11:30:00,
2013-10-19 07:35:00,53.0,52.4,29.94,WSW,248,0.0,0.0,98,0.00,,SCT,0.00,VWS V14.01,2013-10-19 11:35:00,
2013-10-19 07:40:00,52.8,52.2,29.94,WSW,248,0.0,0.0,98,0.00,,SCT,0.00,VWS V14.01,2013-10-19 11:40:00,
2013-10-19 07:44:00,52.6,52.0,29.94,WSW,248,0.0,0.0,98,0.00,,SCT,0.00,VWS V14.01,2013-10-19 11:44:00,
2013-10-19 07:49:00,52.6,52.0,29.94,WSW,248,0.0,0.0,98,0.00,,SCT,0.00,VWS V14.01,2013-10-19 11:49:00,
2013-10-19 07:54:00,53.0,52.7,29.94,WSW,248,0.0,0.0,99,0.00,,SCT,0.00,VWS V14.01,2013-10-19 11:54:00,
2013-10-19 07:59:00,53.0,52.7,29.94,WSW,248,0.0,0.0,99,0.00,,SCT,0.00,VWS V14.01,2013-10-19 11:59:00,
2013-10-19 08:04:00,53.0,52.7,29.94,WSW,248,0.0,0.0,99,0.00,,SCT,0.00,VWS V14.01,2013-10-19 12:04:00,
2013-10-19 08:09:00,53.3,53.0,29.94,WSW,248,0.0,0.0,99,0.00,,SCT,0.00,VWS V14.01,2013-10-19 12:09:00,
2013-10-19 08:14:00,53.1,52.9,29.94,WSW,248,0.0,0.0,99,0.00,,SCT,0.00,VWS V14.01,2013-10-19 12:14:00,
2013-10-19 08:19:00,53.1,52.9,29.94,WSW,248,0.0,0.0,99,0.00,,SCT,0.00,VWS V14.01,2013-10-19 12:19:00,
2013-10-19 08:24:00,53.3,53.0,29.94,WSW,248,0.0,0.0,99,0.00,,SCT,0.00,VWS V14.01,2013-10-19 12:24:00,
2013-10-19 08:29:00,53.1,52.9,29.94,WSW,248,0.0,0.0,99,0.00,,SCT,0.00,VWS V14.01,2013-10-19 12:29:00,
2013-10-19 08:34:00,53.3,53.0,29.94,WSW,248,0.0,0.0,99,0.00,,SCT,0.00,VWS V14.01,2013-10-19 12:34:00,
2013-10-19 08:39:00,53.7,53.4,29.94,WSW,248,0.0,0.0,99,0.00,,SCT,0.00,VWS V14.01,2013-10-19 12:39:00,
2013-10-19 08:44:00,53.9,53.6,29.94,WSW,248,0.0,0.0,99,0.00,,SCT,0.00,VWS V14.01,2013-10-19 12:44:00,
2013-10-19 08:49:00,53.9,53.6,29.94,WSW,248,0.0,0.0,99,0.00,,SCT,0.00,VWS V14.01,2013-10-19 12:49:00,
2013-10-19 08:54:00,54.0,53.8,29.94,WSW,248,0.0,0.0,99,0.00,,SCT,0.00,VWS V14.01,2013-10-19 12:54:00,
2013-10-19 08:59:00,54.2,54.0,29.94,WSW,248,0.0,0.0,99,0.00,,SCT,0.00,VWS V14.01,2013-10-19 12:59:00,
2013-10-19 09:04:00,54.9,54.9,29.94,WSW,248,0.0,0.0,100,0.00,,SCT,0.00,VWS V14.01,2013-10-19 13:04:00,
2013-10-19 09:09:00,54.8,54.5,29.94,WSW,248,0.0,0.0,99,0.00,,SCT,0.00,VWS V14.01,2013-10-19 13:09:00,
2013-10-19 09:14:00,54.8,54.5,29.94,WSW,248,0.0,0.0,99,0.00,,SCT,0.00,VWS V14.01,2013-10-19 13:14:00,
2013-10-19 09:19:00,54.9,54.7,29.94,WSW,248,0.0,0.0,99,0.00,,SCT,0.00,VWS V14.01,2013-10-19 13:19:00,
2013-10-19 09:24:00,54.8,54.5,29.94,WSW,248,0.0,3.6,99,0.00,,SCT,0.00,VWS V14.01,2013-10-19 13:24:00,
2013-10-19 09:29:00,54.8,54.5,29.94,WSW,248,0.0,0.0,99,0.00,,SCT,0.00,VWS V14.01,2013-10-19 13:29:00,
2013-10-19 09:34:00,54.8,54.5,29.94,WSW,248,0.0,0.0,99,0.00,,SCT,0.00,VWS V14.01,2013-10-19 13:34:00,
2013-10-19 09:39:00,54.8,54.5,29.94,WSW,249,0.0,0.0,99,0.00,,SCT,0.00,VWS V14.01,2013-10-19 13:39:00,
2013-10-19 09:44:00,54.8,54.5,29.94,WSW,249,0.0,0.0,99,0.00,,SCT,0.00,VWS V14.01,2013-10-19 13:44:00,
2013-10-19 09:49:00,54.9,54.7,29.94,WSW,249,0.0,0.0,99,0.00,,SCT,0.00,VWS V14.01,2013-10-19 13:49:00,
2013-10-19 09:54:00,55.3,55.3,29.94,WSW,249,0.0,0.0,100,0.00,,SCT,0.00,VWS V14.01,2013-10-19 13:54:00,
2013-10-19 09:59:00,55.7,55.7,29.94,WSW,249,0.0,0.0,100,0.00,,SCT,0.00,VWS V14.01,2013-10-19 13:59:00,
2013-10-19 10:04:00,55.8,55.8,29.94,WSW,249,0.0,0.0,100,0.00,,SCT,0.00,VWS V14.01,2013-10-19 14:04:00,
2013-10-19 10:09:00,56.0,55.8,29.94,WSW,249,0.0,0.0,99,0.00,,SCT,0.00,VWS V14.01,2013-10-19 14:09:00,
2013-10-19 10:14:00,56.2,56.2,29.94,WSW,249,0.0,0.0,100,0.00,,SCT,0.00,VWS V14.01,2013-10-19 14:14:00,
2013-10-19 10:19:00,56.6,56.6,29.94,WSW,249,0.0,0.0,100,0.00,,SCT,0.00,VWS V14.01,2013-10-19 14:19:00,
2013-10-19 10:24:00,56.6,56.6,29.94,SW,233,0.0,0.0,100,0.00,,SCT,0.00,VWS V14.01,2013-10-19 14:24:00,
2013-10-19 10:29:00,56.9,56.9,29.94,SW,233,0.0,0.0,100,0.00,,SCT,0.00,VWS V14.01,2013-10-19 14:29:00,
2013-10-19 10:34:00,57.1,57.1,29.94,SW,233,0.0,0.0,100,0.00,,SCT,0.00,VWS V14.01,2013-10-19 14:34:00,
2013-10-19 10:39:00,57.1,56.8,29.94,SW,233,0.0,0.0,99,0.00,,SCT,0.00,VWS V14.01,2013-10-19 14:39:00,
2013-10-19 10:44:00,57.1,56.8,29.94,SW,233,0.0,0.0,99,0.00,,SCT,0.00,VWS V14.01,2013-10-19 14:44:00,
2013-10-19 10:49:00,57.1,56.8,29.94,SW,233,0.0,0.0,99,0.00,,SCT,0.00,VWS V14.01,2013-10-19 14:49:00,
2013-10-19 10:54:00,57.3,57.0,29.94,SW,233,0.0,0.0,99,0.00,,SCT,0.00,VWS V14.01,2013-10-19 14:54:00,
2013-10-19 10:59:00,57.3,57.0,29.94,SW,233,0.0,0.0,99,0.00,,SCT,0.00,VWS V14.01,2013-10-19 14:59:00,
2013-10-19 11:04:00,57.3,56.7,29.94,SW,233,0.0,0.0,98,0.00,,SCT,0.00,VWS V14.01,2013-10-19 15:04:00,
2013-10-19 11:09:00,57.5,57.2,29.94,ENE,65,3.1,4.0,99,0.00,,SCT,0.00,VWS V14.01,2013-10-19 15:09:00,
2013-10-19 11:14:00,57.5,56.9,29.91,NE,48,3.1,4.5,98,0.00,,SCT,0.00,VWS V14.01,2013-10-19 15:14:00,
2013-10-19 11:19:00,58.0,57.7,29.91,NE,48,0.0,0.0,99,0.00,,SCT,0.00,VWS V14.01,2013-10-19 15:19:00,
2013-10-19 11:24:00,58.0,57.4,29.91,ENE,78,0.0,0.0,98,0.00,,SCT,0.00,VWS V14.01,2013-10-19 15:24:00,
2013-10-19 11:29:00,58.0,57.4,29.91,East,87,0.0,0.0,98,0.00,,SCT,0.00,VWS V14.01,2013-10-19 15:29:00,
2013-10-19 11:34:00,58.4,57.8,29.91,East,81,0.0,0.0,98,0.00,,SCT,0.00,VWS V14.01,2013-10-19 15:34:00,
2013-10-19 11:39:00,58.7,58.2,29.91,ENE,67,0.0,0.0,98,0.00,,SCT,0.00,VWS V14.01,2013-10-19 15:39:00,
2013-10-19 11:44:00,59.3,58.7,29.91,ENE,67,0.0,0.0,98,0.00,,SCT,0.00,VWS V14.01,2013-10-19 15:44:00,
2013-10-19 11:49:00,59.6,59.1,29.91,South,189,0.0,0.0,98,0.00,,SCT,0.00,VWS V14.01,2013-10-19 15:49:00,
2013-10-19 11:54:00,60.2,59.6,29.91,SE,129,0.0,0.0,98,0.00,,SCT,0.00,VWS V14.01,2013-10-19 15:54:00,
2013-10-19 11:59:00,60.3,59.5,29.91,South,172,0.0,0.0,97,0.00,,SCT,0.00,VWS V14.01,2013-10-19 15:59:00,
2013-10-19 12:04:00,60.7,59.8,29.91,South,172,0.0,0.0,97,0.00,,SCT,0.00,VWS V14.01,2013-10-19 16:04:00,
2013-10-19 12:09:00,60.5,59.4,29.91,South,172,0.0,0.0,96,0.00,,SCT,0.00,VWS V14.01,2013-10-19 16:09:00,
2013-10-19 12:14:00,60.3,58.9,29.91,South,172,0.0,0.0,95,0.00,,SCT,0.00,VWS V14.01,2013-10-19 16:14:00,
2013-10-19 12:19:00,60.3,58.9,29.91,South,172,0.0,0.0,95,0.00,,SCT,0.00,VWS V14.01,2013-10-19 16:19:00,
2013-10-19 12:24:00,60.0,58.2,29.91,South,172,0.0,0.0,94,0.00,,SCT,0.00,VWS V14.01,2013-10-19 16:24:00,
2013-10-19 12:29:00,60.0,58.2,29.91,South,172,0.0,0.0,94,0.00,,SCT,0.00,VWS V14.01,2013-10-19 16:29:00,
2013-10-19 12:34:00,59.6,57.6,29.91,South,172,0.0,0.0,93,0.00,,SCT,0.00,VWS V14.01,2013-10-19 16:34:00,
2013-10-19 12:39:00,59.4,57.4,29.91,South,172,0.0,0.0,93,0.00,,SCT,0.00,VWS V14.01,2013-10-19 16:39:00,
2013-10-19 12:44:00,59.4,57.4,29.91,South,172,0.0,0.0,93,0.00,,SCT,0.00,VWS V14.01,2013-10-19 16:44:00,
2013-10-19 12:49:00,59.4,57.4,29.91,South,172,0.0,0.0,93,0.00,,SCT,0.00,VWS V14.01,2013-10-19 16:49:00,
2013-10-19 12:54:00,59.4,57.4,29.91,South,172,0.0,0.0,93,0.00,,SCT,0.00,VWS V14.01,2013-10-19 16:54:00,
2013-10-19 12:59:00,59.6,57.9,29.88,ENE,69,0.0,0.0,94,0.00,,SCT,0.00,VWS V14.01,2013-10-19 16:59:00,
2013-10-19 13:04:00,59.8,58.1,29.88,ENE,69,0.0,0.0,94,0.00,,SCT,0.00,VWS V14.01,2013-10-19 17:04:00,
2013-10-19 13:09:00,60.0,58.2,29.88,ENE,69,0.0,0.0,94,0.00,,SCT,0.00,VWS V14.01,2013-10-19 17:09:00,
2013-10-19 13:14:00,60.0,58.2,29.88,ENE,69,0.0,0.0,94,0.00,,SCT,0.00,VWS V14.01,2013-10-19 17:14:00,
2013-10-19 13:19:00,60.3,58.6,29.88,ENE,69,0.0,0.0,94,0.00,,SCT,0.00,VWS V14.01,2013-10-19 17:19:00,
2013-10-19 13:24:00,60.0,58.0,29.88,ENE,69,0.0,0.0,93,0.00,,SCT,0.00,VWS V14.01,2013-10-19 17:24:00,
2013-10-19 13:29:00,60.0,58.0,29.88,ENE,69,0.0,0.0,93,0.00,,SCT,0.00,VWS V14.01,2013-10-19 17:29:00,
2013-10-19 13:34:00,60.2,58.1,29.88,ENE,69,0.0,0.0,93,0.00,,SCT,0.00,VWS V14.01,2013-10-19 17:34:00,
2013-10-19 13:39:00,60.3,58.3,29.88,ENE,69,0.0,0.0,93,0.00,,SCT,0.00,VWS V14.01,2013-10-19 17:39:00,
2013-10-19 13:44:00,60.3,58.3,29.88,SW,220,0.0,3.6,93,0.00,,SCT,0.00,VWS V14.01,2013-10-19 17:44:00,
2013-10-19 13:49:00,60.3,58.3,29.85,South,191,0.0,0.0,93,0.00,,SCT,0.00,VWS V14.01,2013-10-19 17:49:00,
2013-10-19 13:54:00,60.7,58.7,29.85,SSW,196,3.6,4.9,93,0.00,,SCT,0.00,VWS V14.01,2013-10-19 17:54:00,
2013-10-19 13:59:00,60.5,58.2,29.85,SW,219,3.1,3.6,92,0.00,,SCT,0.00,VWS V14.01,2013-10-19 17:59:00,
2013-10-19 14:04:00,60.3,58.0,29.85,SW,214,0.0,0.0,92,0.00,,SCT,0.00,VWS V14.01,2013-10-19 18:04:00,
2013-10-19 14:09:00,60.3,58.0,29.85,SSW,213,3.1,3.1,92,0.00,,SCT,0.00,VWS V14.01,2013-10-19 18:09:00,
2013-10-19 14:14:00,60.2,57.5,29.85,South,172,2.7,2.7,91,0.00,,SCT,0.00,VWS V14.01,2013-10-19 18:14:00,
2013-10-19 14:18:00,60.3,58.0,29.85,WSW,241,2.7,3.1,92,0.00,,SCT,0.00,VWS V14.01,2013-10-19 18:18:00,
2013-10-19 14:23:00,60.3,58.0,29.85,WSW,241,0.0,0.0,92,0.00,,SCT,0.00,VWS V14.01,2013-10-19 18:23:00,
2013-10-19 14:28:00,60.3,58.0,29.85,WSW,253,2.7,2.7,92,0.00,,SCT,0.00,VWS V14.01,2013-10-19 18:28:00,
2013-10-19 14:33:00,60.3,57.7,29.85,South,187,2.7,2.7,91,0.00,,SCT,0.00,VWS V14.01,2013-10-19 18:33:00,
2013-10-19 14:38:00,60.3,57.7,29.85,West,273,4.5,4.5,91,0.00,,SCT,0.00,VWS V14.01,2013-10-19 18:38:00,
2013-10-19 14:43:00,60.3,57.7,29.85,West,272,0.0,2.7,91,0.00,,SCT,0.00,VWS V14.01,2013-10-19 18:43:00,
2013-10-19 14:48:00,60.5,57.9,29.85,SSW,193,2.7,3.1,91,0.00,,SCT,0.00,VWS V14.01,2013-10-19 18:48:00,
2013-10-19 14:53:00,60.7,58.1,29.85,West,259,0.0,0.0,91,0.00,,SCT,0.00,VWS V14.01,2013-10-19 18:53:00,
2013-10-19 14:58:00,60.9,58.2,29.85,WSW,254,0.0,0.0,91,0.00,,SCT,0.00,VWS V14.01,2013-10-19 18:58:00,
2013-10-19 15:03:00,60.7,58.1,29.85,West,269,0.0,0.0,91,0.00,,SCT,0.00,VWS V14.01,2013-10-19 19:03:00,
2013-10-19 15:08:00,60.5,57.9,29.85,West,269,0.0,3.1,91,0.00,,SCT,0.00,VWS V14.01,2013-10-19 19:08:00,
2013-10-19 15:13:00,60.3,57.7,29.85,West,269,0.0,0.0,91,0.00,,SCT,0.00,VWS V14.01,2013-10-19 19:13:00,
2013-10-19 15:18:00,60.3,57.7,29.85,West,269,0.0,0.0,91,0.00,,SCT,0.00,VWS V14.01,2013-10-19 19:18:00,
2013-10-19 15:23:00,60.3,57.7,29.85,West,269,0.0,0.0,91,0.00,,SCT,0.00,VWS V14.01,2013-10-19 19:23:00,
2013-10-19 15:28:00,60.2,57.5,29.85,West,269,0.0,0.0,91,0.00,,SCT,0.00,VWS V14.01,2013-10-19 19:28:00,
2013-10-19 15:33:00,60.0,57.3,29.82,West,269,0.0,0.0,91,0.00,,SCT,0.00,VWS V14.01,2013-10-19 19:33:00,
2013-10-19 15:38:00,60.2,57.5,29.82,SE,140,3.1,3.1,91,0.00,,SCT,0.00,VWS V14.01,2013-10-19 19:38:00,
2013-10-19 15:43:00,60.5,58.2,29.82,SE,140,0.0,0.0,92,0.00,,SCT,0.00,VWS V14.01,2013-10-19 19:43:00,
2013-10-19 15:48:00,60.7,58.4,29.85,SE,140,0.0,0.0,92,0.00,,SCT,0.00,VWS V14.01,2013-10-19 19:48:00,
2013-10-19 15:53:00,60.7,58.4,29.85,WSW,248,0.0,0.0,92,0.00,,SCT,0.00,VWS V14.01,2013-10-19 19:53:00,
2013-10-19 15:58:00,60.7,58.4,29.85,WSW,248,0.0,0.0,92,0.00,,SCT,0.00,VWS V14.01,2013-10-19 19:58:00,
2013-10-19 16:03:00,60.9,58.5,29.85,WSW,248,0.0,0.0,92,0.00,,SCT,0.00,VWS V14.01,2013-10-19 20:03:00,
2013-10-19 16:08:00,61.1,58.7,29.85,WSW,248,0.0,0.0,92,0.00,,SCT,0.00,VWS V14.01,2013-10-19 20:08:00,
2013-10-19 16:13:00,60.9,58.5,29.85,WSW,248,0.0,0.0,92,0.00,,SCT,0.00,VWS V14.01,2013-10-19 20:13:00,
2013-10-19 16:18:00,60.9,58.5,29.85,WSW,248,0.0,0.0,92,0.00,,SCT,0.00,VWS V14.01,2013-10-19 20:18:00,
2013-10-19 16:23:00,60.9,58.5,29.85,WSW,248,0.0,0.0,92,0.00,,SCT,0.00,VWS V14.01,2013-10-19 20:23:00,
2013-10-19 16:28:00,60.9,58.5,29.85,WSW,248,0.0,0.0,92,0.00,,SCT,0.00,VWS V14.01,2013-10-19 20:28:00,
2013-10-19 16:33:00,60.7,58.1,29.85,WSW,248,0.0,0.0,91,0.00,,SCT,0.00,VWS V14.01,2013-10-19 20:33:00,
2013-10-19 16:38:00,60.5,58.2,29.85,WSW,248,0.0,0.0,92,0.00,,SCT,0.00,VWS V14.01,2013-10-19 20:38:00,
2013-10-19 16:43:00,60.3,58.0,29.85,WSW,248,0.0,0.0,92,0.00,,SCT,0.00,VWS V14.01,2013-10-19 20:43:00,
2013-10-19 16:48:00,60.2,57.8,29.85,WSW,248,0.0,0.0,92,0.00,,SCT,0.00,VWS V14.01,2013-10-19 20:48:00,
2013-10-19 16:53:00,60.2,57.8,29.85,South,171,0.0,2.7,92,0.00,,SCT,0.00,VWS V14.01,2013-10-19 20:53:00,
2013-10-19 16:58:00,60.0,57.7,29.85,South,171,0.0,0.0,92,0.00,,SCT,0.00,VWS V14.01,2013-10-19 20:58:00,
2013-10-19 17:03:00,60.2,57.8,29.85,South,171,0.0,0.0,92,0.00,,SCT,0.00,VWS V14.01,2013-10-19 21:03:00,
2013-10-19 17:08:00,60.3,58.3,29.85,South,173,0.0,0.0,93,0.00,,SCT,0.00,VWS V14.01,2013-10-19 21:08:00,
2013-10-19 17:13:00,60.3,58.3,29.85,SSE,154,2.7,3.6,93,0.00,,SCT,0.00,VWS V14.01,2013-10-19 21:13:00,
2013-10-19 17:18:00,60.3,58.3,29.85,West,271,0.0,2.7,93,0.00,,SCT,0.00,VWS V14.01,2013-10-19 21:18:00,
2013-10-19 17:23:00,60.3,58.3,29.85,West,270,3.6,3.6,93,0.00,,SCT,0.00,VWS V14.01,2013-10-19 21:23:00,
2013-10-19 17:28:00,60.3,58.3,29.85,ESE,114,3.6,3.6,93,0.00,,SCT,0.00,VWS V14.01,2013-10-19 21:28:00,
2013-10-19 17:33:00,60.5,58.5,29.85,SSW,197,2.7,4.5,93,0.00,,SCT,0.00,VWS V14.01,2013-10-19 21:33:00,
2013-10-19 17:38:00,60.2,58.1,29.85,SW,214,4.0,4.0,93,0.00,,SCT,0.00,VWS V14.01,2013-10-19 21:38:00,
2013-10-19 17:43:00,60.0,58.0,29.85,West,262,0.0,0.0,93,0.00,,SCT,0.00,VWS V14.01,2013-10-19 21:43:00,
2013-10-19 17:48:00,59.8,57.8,29.85,West,262,0.0,0.0,93,0.00,,SCT,0.00,VWS V14.01,2013-10-19 21:48:00,
2013-10-19 17:53:00,59.8,57.8,29.85,West,262,0.0,0.0,93,0.00,,SCT,0.00,VWS V14.01,2013-10-19 21:53:00,
2013-10-19 17:58:00,59.6,57.6,29.85,WSW,258,0.0,0.0,93,0.00,,SCT,0.00,VWS V14.01,2013-10-19 21:58:00,
2013-10-19 18:03:00,59.4,57.4,29.85,WSW,258,0.0,0.0,93,0.00,,SCT,0.00,VWS V14.01,2013-10-19 22:03:00,
2013-10-19 18:08:00,59.3,57.2,29.85,South,181,0.0,0.0,93,0.00,,SCT,0.00,VWS V14.01,2013-10-19 22:08:00,
2013-10-19 18:13:00,59.1,57.1,29.85,South,181,0.0,0.0,93,0.00,,SCT,0.00,VWS V14.01,2013-10-19 22:13:00,
2013-10-19 18:18:00,59.1,57.1,29.85,SW,236,0.0,0.0,93,0.00,,SCT,0.00,VWS V14.01,2013-10-19 22:18:00,
2013-10-19 18:23:00,58.9,56.9,29.85,WSW,240,0.0,0.0,93,0.00,,SCT,0.00,VWS V14.01,2013-10-19 22:23:00,
2013-10-19 18:28:00,58.9,56.9,29.85,WSW,240,0.0,0.0,93,0.00,,SCT,0.00,VWS V14.01,2013-10-19 22:28:00,
2013-10-19 18:33:00,58.9,57.2,29.85,WSW,240,0.0,0.0,94,0.00,,SCT,0.00,VWS V14.01,2013-10-19 22:33:00,
2013-10-19 18:38:00,58.7,57.0,29.85,WSW,240,0.0,0.0,94,0.00,,SCT,0.00,VWS V14.01,2013-10-19 22:38:00,
2013-10-19 18:43:00,58.5,56.8,29.85,WSW,240,0.0,0.0,94,0.00,,SCT,0.00,VWS V14.01,2013-10-19 22:43:00,
2013-10-19 18:48:00,58.4,56.3,29.85,WSW,240,0.0,0.0,93,0.00,,SCT,0.00,VWS V14.01,2013-10-19 22:48:00,
2013-10-19 18:53:00,58.0,56.0,29.85,WSW,240,0.0,0.0,93,0.00,,SCT,0.00,VWS V14.01,2013-10-19 22:53:00,
2013-10-19 18:58:00,57.6,55.6,29.85,WSW,240,0.0,0.0,93,0.00,,SCT,0.00,VWS V14.01,2013-10-19 22:58:00,
2013-10-19 19:03:00,57.5,55.5,29.85,WSW,240,0.0,0.0,93,0.00,,SCT,0.00,VWS V14.01,2013-10-19 23:03:00,
2013-10-19 19:08:00,57.1,55.1,29.85,WSW,240,0.0,0.0,93,0.00,,SCT,0.00,VWS V14.01,2013-10-19 23:08:00,
2013-10-19 19:13:00,57.1,55.4,29.85,WSW,240,0.0,0.0,94,0.00,,SCT,0.00,VWS V14.01,2013-10-19 23:13:00,
2013-10-19 19:18:00,56.9,55.2,29.88,WSW,240,0.0,0.0,94,0.00,,SCT,0.00,VWS V14.01,2013-10-19 23:18:00,
2013-10-19 19:23:00,56.7,55.0,29.88,WSW,240,0.0,0.0,94,0.00,,SCT,0.00,VWS V14.01,2013-10-19 23:23:00,
2013-10-19 19:28:00,56.7,55.0,29.88,WSW,240,0.0,0.0,94,0.00,,SCT,0.00,VWS V14.01,2013-10-19 23:28:00,
2013-10-19 19:33:00,56.6,54.9,29.88,WSW,240,0.0,0.0,94,0.00,,SCT,0.00,VWS V14.01,2013-10-19 23:33:00,
2013-10-19 19:38:00,56.4,54.7,29.88,WSW,240,0.0,0.0,94,0.00,,SCT,0.00,VWS V14.01,2013-10-19 23:38:00,
2013-10-19 19:43:00,56.4,54.7,29.88,WSW,240,0.0,0.0,94,0.00,,SCT,0.00,VWS V14.01,2013-10-19 23:43:00,
2013-10-19 19:48:00,56.2,54.5,29.88,WSW,240,0.0,0.0,94,0.00,,SCT,0.00,VWS V14.01,2013-10-19 23:48:00,
2013-10-19 19:53:00,56.2,54.5,29.88,WSW,240,0.0,0.0,94,0.00,,SCT,0.00,VWS V14.01,2013-10-19 23:53:00,
2013-10-19 19:58:00,56.0,54.3,29.88,WSW,240,0.0,0.0,94,0.00,,SCT,0.00,VWS V14.01,2013-10-19 23:58:00,
2013-10-19 20:03:00,55.8,54.1,29.88,WSW,240,0.0,0.0,94,0.00,,SCT,0.00,VWS V14.01,2013-10-20 00:03:00,
2013-10-19 20:08:00,55.8,54.1,29.88,WSW,240,0.0,0.0,94,0.00,,SCT,0.00,VWS V14.01,2013-10-20 00:08:00,
2013-10-19 20:13:00,55.7,54.0,29.88,WSW,240,0.0,0.0,94,0.00,,SCT,0.00,VWS V14.01,2013-10-20 00:13:00,
2013-10-19 20:18:00,55.5,53.8,29.88,WSW,240,0.0,0.0,94,0.00,,SCT,0.00,VWS V14.01,2013-10-20 00:18:00,
2013-10-19 20:22:00,55.3,53.9,29.88,WSW,240,0.0,0.0,95,0.00,,SCT,0.00,VWS V14.01,2013-10-20 00:22:00,
2013-10-19 20:27:00,54.9,53.5,29.88,WSW,240,0.0,0.0,95,0.00,,SCT,0.00,VWS V14.01,2013-10-20 00:27:00,
2013-10-19 20:32:00,54.9,53.5,29.88,WSW,240,0.0,0.0,95,0.00,,SCT,0.00,VWS V14.01,2013-10-20 00:32:00,
2013-10-19 20:37:00,54.8,53.4,29.88,WSW,240,0.0,0.0,95,0.00,,SCT,0.00,VWS V14.01,2013-10-20 00:37:00,
2013-10-19 20:42:00,54.8,53.4,29.88,WSW,240,0.0,0.0,95,0.00,,SCT,0.00,VWS V14.01,2013-10-20 00:42:00,
2013-10-19 20:47:00,54.4,53.0,29.88,WSW,240,0.0,0.0,95,0.00,,SCT,0.00,VWS V14.01,2013-10-20 00:47:00,
2013-10-19 20:52:00,54.4,53.0,29.88,WSW,240,0.0,0.0,95,0.00,,SCT,0.00,VWS V14.01,2013-10-20 00:52:00,
2013-10-19 20:57:00,54.0,52.6,29.88,WSW,240,0.0,0.0,95,0.00,,SCT,0.00,VWS V14.01,2013-10-20 00:57:00,
2013-10-19 21:02:00,54.0,52.6,29.88,WSW,240,0.0,0.0,95,0.00,,SCT,0.00,VWS V14.01,2013-10-20 01:02:00,
2013-10-19 21:07:00,53.9,52.5,29.88,WSW,240,0.0,0.0,95,0.00,,SCT,0.00,VWS V14.01,2013-10-20 01:07:00,
2013-10-19 21:12:00,53.7,52.3,29.88,WSW,240,0.0,0.0,95,0.00,,SCT,0.00,VWS V14.01,2013-10-20 01:12:00,
2013-10-19 21:17:00,53.5,52.1,29.88,WSW,240,0.0,0.0,95,0.00,,SCT,0.00,VWS V14.01,2013-10-20 01:17:00,
2013-10-19 21:22:00,53.5,52.4,29.88,WSW,240,0.0,0.0,96,0.00,,SCT,0.00,VWS V14.01,2013-10-20 01:22:00,
2013-10-19 21:27:00,53.5,52.4,29.88,WSW,240,0.0,0.0,96,0.00,,SCT,0.00,VWS V14.01,2013-10-20 01:27:00,
2013-10-19 21:32:00,53.3,52.2,29.88,WSW,240,0.0,0.0,96,0.00,,SCT,0.00,VWS V14.01,2013-10-20 01:32:00,
2013-10-19 21:37:00,53.1,52.0,29.88,WSW,240,0.0,0.0,96,0.00,,SCT,0.00,VWS V14.01,2013-10-20 01:37:00,
2013-10-19 21:42:00,53.1,52.0,29.88,WSW,240,0.0,0.0,96,0.00,,SCT,0.00,VWS V14.01,2013-10-20 01:42:00,
2013-10-19 21:47:00,53.0,51.8,29.88,WSW,240,0.0,0.0,96,0.00,,SCT,0.00,VWS V14.01,2013-10-20 01:47:00,
2013-10-19 21:52:00,52.8,51.7,29.88,WSW,240,0.0,0.0,96,0.00,,SCT,0.00,VWS V14.01,2013-10-20 01:52:00,
2013-10-19 21:57:00,52.8,51.7,29.88,WSW,240,0.0,0.0,96,0.00,,SCT,0.00,VWS V14.01,2013-10-20 01:57:00,
2013-10-19 22:02:00,52.6,51.5,29.91,WSW,240,0.0,0.0,96,0.00,,SCT,0.00,VWS V14.01,2013-10-20 02:02:00,
2013-10-19 22:07:00,52.4,51.3,29.91,WSW,240,0.0,0.0,96,0.00,,SCT,0.00,VWS V14.01,2013-10-20 02:07:00,
2013-10-19 22:12:00,52.2,51.1,29.91,WSW,240,0.0,0.0,96,0.00,,SCT,0.00,VWS V14.01,2013-10-20 02:12:00,
2013-10-19 22:17:00,52.2,51.4,29.91,WSW,240,0.0,0.0,97,0.00,,SCT,0.00,VWS V14.01,2013-10-20 02:17:00,
2013-10-19 22:22:00,52.1,51.2,29.91,WSW,240,0.0,0.0,97,0.00,,SCT,0.00,VWS V14.01,2013-10-20 02:22:00,
2013-10-19 22:27:00,52.1,51.2,29.91,WSW,240,0.0,0.0,97,0.00,,SCT,0.00,VWS V14.01,2013-10-20 02:27:00,
2013-10-19 22:32:00,52.1,51.2,29.91,WSW,240,0.0,0.0,97,0.00,,SCT,0.00,VWS V14.01,2013-10-20 02:32:00,
2013-10-19 22:37:00,51.9,51.1,29.91,WSW,240,0.0,0.0,97,0.00,,SCT,0.00,VWS V14.01,2013-10-20 02:37:00,
2013-10-19 22:42:00,51.9,51.1,29.91,WSW,240,0.0,0.0,97,0.00,,SCT,0.00,VWS V14.01,2013-10-20 02:42:00,
2013-10-19 22:47:00,51.9,51.1,29.91,WSW,240,0.0,0.0,97,0.00,,SCT,0.00,VWS V14.01,2013-10-20 02:47:00,
2013-10-19 22:52:00,51.9,51.1,29.91,WSW,240,0.0,0.0,97,0.00,,SCT,0.00,VWS V14.01,2013-10-20 02:52:00,
2013-10-19 22:57:00,51.7,50.9,29.91,WSW,240,0.0,0.0,97,0.00,,SCT,0.00,VWS V14.01,2013-10-20 02:57:00,
2013-10-19 23:02:00,51.9,51.1,29.91,WSW,240,0.0,0.0,97,0.00,,SCT,0.00,VWS V14.01,2013-10-20 03:02:00,
2013-10-19 23:07:00,51.7,51.2,29.91,WSW,240,0.0,0.0,98,0.00,,SCT,0.00,VWS V14.01,2013-10-20 03:07:00,
2013-10-19 23:12:00,51.5,51.0,29.91,WSW,240,0.0,0.0,98,0.00,,SCT,0.00,VWS V14.01,2013-10-20 03:12:00,
2013-10-19 23:17:00,51.5,51.0,29.91,WSW,240,0.0,0.0,98,0.00,,SCT,0.00,VWS V14.01,2013-10-20 03:17:00,
2013-10-19 23:22:00,51.5,51.0,29.91,WSW,240,0.0,0.0,98,0.00,,SCT,0.00,VWS V14.01,2013-10-20 03:22:00,
2013-10-19 23:27:00,51.5,51.0,29.91,WSW,240,0.0,0.0,98,0.00,,SCT,0.00,VWS V14.01,2013-10-20 03:27:00,
2013-10-19 23:32:00,51.9,51.3,29.91,WSW,240,0.0,0.0,98,0.00,,SCT,0.00,VWS V14.01,2013-10-20 03:32:00,
2013-10-19 23:37:00,52.1,51.8,29.91,WSW,240,0.0,0.0,99,0.00,,SCT,0.00,VWS V14.01,2013-10-20 03:37:00,
2013-10-19 23:42:00,52.2,52.0,29.91,WSW,240,0.0,0.0,99,0.00,,SCT,0.00,VWS V14.01,2013-10-20 03:42:00,
2013-10-19 23:47:00,52.6,52.3,29.91,WSW,240,0.0,0.0,99,0.00,,SCT,0.00,VWS V14.01,2013-10-20 03:47:00,
2013-10-19 23:52:00,53.0,52.7,29.91,WSW,240,0.0,0.0,99,0.00,,SCT,0.00,VWS V14.01,2013-10-20 03:52:00,
2013-10-19 23:57:00,53.3,53.0,29.91,WSW,240,0.0,0.0,99,0.00,,SCT,0.00,VWS V14.01,2013-10-20 03:57:00,